sensor_id;sensor_type;location;lat;lon;timestamp;temperature;humidity
11983;DHT22;72623;51.184;7.176;2024-02-23T00:00:54;7.30;99.90
11983;DHT22;72623;51.184;7.176;2024-02-23T00:03:20;7.30;99.90
11983;DHT22;72623;51.184;7.176;2024-02-23T00:05:47;7.20;99.90
11983;DHT22;72623;51.184;7.176;2024-02-23T00:08:14;7.20;99.90
11983;DHT22;72623;51.184;7.176;2024-02-23T00:10:41;7.20;99.90
11983;DHT22;72623;51.184;7.176;2024-02-23T00:13:07;7.10;99.90
11983;DHT22;72623;51.184;7.176;2024-02-23T00:15:34;7.00;99.90
11983;DHT22;72623;51.184;7.176;2024-02-23T00:18:01;7.00;99.90
11983;DHT22;72623;51.184;7.176;2024-02-23T00:20:29;7.00;99.90
11983;DHT22;72623;51.184;7.176;2024-02-23T00:22:56;7.00;99.90
11983;DHT22;72623;51.184;7.176;2024-02-23T00:25:22;6.90;99.90
11983;DHT22;72623;51.184;7.176;2024-02-23T00:27:49;6.80;99.90
11983;DHT22;72623;51.184;7.176;2024-02-23T00:30:16;6.90;99.90
11983;DHT22;72623;51.184;7.176;2024-02-23T00:32:43;7.00;99.90
11983;DHT22;72623;51.184;7.176;2024-02-23T00:35:10;7.00;99.90
11983;DHT22;72623;51.184;7.176;2024-02-23T00:37:36;6.90;99.90
11983;DHT22;72623;51.184;7.176;2024-02-23T00:40:04;6.80;99.90
11983;DHT22;72623;51.184;7.176;2024-02-23T00:42:31;6.80;99.90
11983;DHT22;72623;51.184;7.176;2024-02-23T00:44:58;6.70;99.90
11983;DHT22;72623;51.184;7.176;2024-02-23T00:47:26;6.70;99.90
11983;DHT22;72623;51.184;7.176;2024-02-23T00:49:53;6.80;99.90
11983;DHT22;72623;51.184;7.176;2024-02-23T00:52:19;6.70;99.90
11983;DHT22;72623;51.184;7.176;2024-02-23T00:54:46;6.60;99.90
11983;DHT22;72623;51.184;7.176;2024-02-23T00:57:13;6.60;99.90
11983;DHT22;72623;51.184;7.176;2024-02-23T00:59:41;6.60;99.90
11983;DHT22;72623;51.184;7.176;2024-02-23T01:02:08;6.60;99.90
11983;DHT22;72623;51.184;7.176;2024-02-23T01:04:34;6.60;99.90
11983;DHT22;72623;51.184;7.176;2024-02-23T01:07:01;6.70;99.90
11983;DHT22;72623;51.184;7.176;2024-02-23T01:09:28;6.70;99.90
11983;DHT22;72623;51.184;7.176;2024-02-23T01:11:55;6.80;99.90
11983;DHT22;72623;51.184;7.176;2024-02-23T01:14:21;6.80;99.90
11983;DHT22;72623;51.184;7.176;2024-02-23T01:16:48;6.80;99.90
11983;DHT22;72623;51.184;7.176;2024-02-23T01:19:15;6.90;99.90
11983;DHT22;72623;51.184;7.176;2024-02-23T01:21:42;6.90;99.90
11983;DHT22;72623;51.184;7.176;2024-02-23T01:24:09;6.80;99.90
11983;DHT22;72623;51.184;7.176;2024-02-23T01:26:35;6.70;99.90
11983;DHT22;72623;51.184;7.176;2024-02-23T01:29:02;6.70;99.90
11983;DHT22;72623;51.184;7.176;2024-02-23T01:31:29;6.80;99.90
11983;DHT22;72623;51.184;7.176;2024-02-23T01:33:56;6.80;99.90
11983;DHT22;72623;51.184;7.176;2024-02-23T01:36:23;6.80;99.90
11983;DHT22;72623;51.184;7.176;2024-02-23T01:38:49;6.80;99.90
11983;DHT22;72623;51.184;7.176;2024-02-23T01:41:16;6.70;99.90
11983;DHT22;72623;51.184;7.176;2024-02-23T01:43:43;6.80;99.90
11983;DHT22;72623;51.184;7.176;2024-02-23T01:46:09;6.70;99.90
11983;DHT22;72623;51.184;7.176;2024-02-23T01:48:36;6.70;99.90
11983;DHT22;72623;51.184;7.176;2024-02-23T01:51:03;6.80;99.90
11983;DHT22;72623;51.184;7.176;2024-02-23T01:53:30;6.80;99.90
11983;DHT22;72623;51.184;7.176;2024-02-23T01:55:57;6.80;99.90
11983;DHT22;72623;51.184;7.176;2024-02-23T01:58:26;6.80;99.90
11983;DHT22;72623;51.184;7.176;2024-02-23T02:00:53;6.80;99.90
11983;DHT22;72623;51.184;7.176;2024-02-23T02:03:19;6.80;99.90
11983;DHT22;72623;51.184;7.176;2024-02-23T02:05:46;6.80;99.90
11983;DHT22;72623;51.184;7.176;2024-02-23T02:08:15;6.80;99.90
11983;DHT22;72623;51.184;7.176;2024-02-23T02:10:42;6.80;99.90
11983;DHT22;72623;51.184;7.176;2024-02-23T02:13:10;6.80;99.90
11983;DHT22;72623;51.184;7.176;2024-02-23T02:15:37;6.80;99.90
11983;DHT22;72623;51.184;7.176;2024-02-23T02:18:04;6.70;99.90
11983;DHT22;72623;51.184;7.176;2024-02-23T02:20:32;6.70;99.90
11983;DHT22;72623;51.184;7.176;2024-02-23T02:22:59;6.70;99.90
11983;DHT22;72623;51.184;7.176;2024-02-23T02:25:26;6.70;99.90
11983;DHT22;72623;51.184;7.176;2024-02-23T02:27:53;6.60;99.90
11983;DHT22;72623;51.184;7.176;2024-02-23T02:30:19;6.60;99.90
11983;DHT22;72623;51.184;7.176;2024-02-23T02:32:46;6.70;99.90
11983;DHT22;72623;51.184;7.176;2024-02-23T02:35:13;6.70;99.90
11983;DHT22;72623;51.184;7.176;2024-02-23T02:37:39;6.70;99.90
11983;DHT22;72623;51.184;7.176;2024-02-23T02:40:07;6.70;99.90
11983;DHT22;72623;51.184;7.176;2024-02-23T02:42:34;6.60;99.90
11983;DHT22;72623;51.184;7.176;2024-02-23T02:45:01;6.50;99.90
11983;DHT22;72623;51.184;7.176;2024-02-23T02:47:28;6.60;99.90
11983;DHT22;72623;51.184;7.176;2024-02-23T02:49:55;6.60;99.90
11983;DHT22;72623;51.184;7.176;2024-02-23T02:52:21;6.60;99.90
11983;DHT22;72623;51.184;7.176;2024-02-23T02:54:49;6.60;99.90
11983;DHT22;72623;51.184;7.176;2024-02-23T02:57:16;6.60;99.90
11983;DHT22;72623;51.184;7.176;2024-02-23T02:59:43;6.60;99.90
11983;DHT22;72623;51.184;7.176;2024-02-23T03:02:11;6.60;99.90
11983;DHT22;72623;51.184;7.176;2024-02-23T03:04:38;6.60;99.90
11983;DHT22;72623;51.184;7.176;2024-02-23T03:07:04;6.60;99.90
11983;DHT22;72623;51.184;7.176;2024-02-23T03:09:31;6.60;99.90
11983;DHT22;72623;51.184;7.176;2024-02-23T03:11:58;6.60;99.90
11983;DHT22;72623;51.184;7.176;2024-02-23T03:14:25;6.60;99.90
11983;DHT22;72623;51.184;7.176;2024-02-23T03:16:52;6.60;99.90
11983;DHT22;72623;51.184;7.176;2024-02-23T03:19:18;6.60;99.90
11983;DHT22;72623;51.184;7.176;2024-02-23T03:21:47;6.70;99.90
11983;DHT22;72623;51.184;7.176;2024-02-23T03:24:14;6.60;99.90
11983;DHT22;72623;51.184;7.176;2024-02-23T03:26:41;6.60;99.90
11983;DHT22;72623;51.184;7.176;2024-02-23T03:29:08;6.60;99.90
11983;DHT22;72623;51.184;7.176;2024-02-23T03:31:35;6.60;99.90
11983;DHT22;72623;51.184;7.176;2024-02-23T03:34:02;6.60;99.90
11983;DHT22;72623;51.184;7.176;2024-02-23T03:36:29;6.60;99.90
11983;DHT22;72623;51.184;7.176;2024-02-23T03:38:56;6.60;99.90
11983;DHT22;72623;51.184;7.176;2024-02-23T03:41:23;6.60;99.90
11983;DHT22;72623;51.184;7.176;2024-02-23T03:43:49;6.60;99.90
11983;DHT22;72623;51.184;7.176;2024-02-23T03:46:16;6.50;99.90
11983;DHT22;72623;51.184;7.176;2024-02-23T03:48:44;6.50;99.90
11983;DHT22;72623;51.184;7.176;2024-02-23T03:51:11;6.50;99.90
11983;DHT22;72623;51.184;7.176;2024-02-23T03:53:38;6.50;99.90
11983;DHT22;72623;51.184;7.176;2024-02-23T03:56:05;6.60;99.90
11983;DHT22;72623;51.184;7.176;2024-02-23T03:58:33;6.60;99.90
11983;DHT22;72623;51.184;7.176;2024-02-23T04:01:00;6.60;99.90
11983;DHT22;72623;51.184;7.176;2024-02-23T04:03:27;6.60;99.90
11983;DHT22;72623;51.184;7.176;2024-02-23T04:05:54;6.60;99.90
11983;DHT22;72623;51.184;7.176;2024-02-23T04:08:20;6.60;99.90
11983;DHT22;72623;51.184;7.176;2024-02-23T04:10:47;6.50;99.90
11983;DHT22;72623;51.184;7.176;2024-02-23T04:13:14;6.50;99.90
11983;DHT22;72623;51.184;7.176;2024-02-23T04:15:40;6.50;99.90
11983;DHT22;72623;51.184;7.176;2024-02-23T04:18:07;6.50;99.90
11983;DHT22;72623;51.184;7.176;2024-02-23T04:20:34;6.40;99.90
11983;DHT22;72623;51.184;7.176;2024-02-23T04:23:00;6.40;99.90
11983;DHT22;72623;51.184;7.176;2024-02-23T04:25:27;6.40;99.90
11983;DHT22;72623;51.184;7.176;2024-02-23T04:27:54;6.50;99.90
11983;DHT22;72623;51.184;7.176;2024-02-23T04:30:20;6.60;99.90
11983;DHT22;72623;51.184;7.176;2024-02-23T04:32:47;6.60;99.90
11983;DHT22;72623;51.184;7.176;2024-02-23T04:35:14;6.60;99.90
11983;DHT22;72623;51.184;7.176;2024-02-23T04:37:44;6.60;99.90
11983;DHT22;72623;51.184;7.176;2024-02-23T04:40:11;6.60;99.90
11983;DHT22;72623;51.184;7.176;2024-02-23T04:42:38;6.60;99.90
11983;DHT22;72623;51.184;7.176;2024-02-23T04:45:06;6.50;99.90
11983;DHT22;72623;51.184;7.176;2024-02-23T04:47:33;6.50;99.90
11983;DHT22;72623;51.184;7.176;2024-02-23T04:49:59;6.50;99.90
11983;DHT22;72623;51.184;7.176;2024-02-23T04:52:27;6.50;99.90
11983;DHT22;72623;51.184;7.176;2024-02-23T04:54:54;6.50;99.90
11983;DHT22;72623;51.184;7.176;2024-02-23T04:57:21;6.50;99.90
11983;DHT22;72623;51.184;7.176;2024-02-23T04:59:48;6.50;99.90
11983;DHT22;72623;51.184;7.176;2024-02-23T05:02:14;6.60;99.90
11983;DHT22;72623;51.184;7.176;2024-02-23T05:04:41;6.50;99.90
11983;DHT22;72623;51.184;7.176;2024-02-23T05:07:08;6.50;99.90
11983;DHT22;72623;51.184;7.176;2024-02-23T05:09:34;6.50;99.90
11983;DHT22;72623;51.184;7.176;2024-02-23T05:12:01;6.50;99.90
11983;DHT22;72623;51.184;7.176;2024-02-23T05:14:28;6.40;99.90
11983;DHT22;72623;51.184;7.176;2024-02-23T05:17:02;6.40;99.90
11983;DHT22;72623;51.184;7.176;2024-02-23T05:19:29;6.40;99.90
11983;DHT22;72623;51.184;7.176;2024-02-23T05:21:56;6.40;99.90
11983;DHT22;72623;51.184;7.176;2024-02-23T05:24:22;6.40;99.90
11983;DHT22;72623;51.184;7.176;2024-02-23T05:26:49;6.50;99.90
11983;DHT22;72623;51.184;7.176;2024-02-23T05:29:16;6.50;99.90
11983;DHT22;72623;51.184;7.176;2024-02-23T05:31:54;6.50;99.90
11983;DHT22;72623;51.184;7.176;2024-02-23T05:34:21;6.50;99.90
11983;DHT22;72623;51.184;7.176;2024-02-23T05:36:47;6.50;99.90
11983;DHT22;72623;51.184;7.176;2024-02-23T05:39:16;6.50;99.90
11983;DHT22;72623;51.184;7.176;2024-02-23T05:41:43;6.50;99.90
11983;DHT22;72623;51.184;7.176;2024-02-23T05:44:10;6.50;99.90
11983;DHT22;72623;51.184;7.176;2024-02-23T05:46:38;6.50;99.90
11983;DHT22;72623;51.184;7.176;2024-02-23T05:49:05;6.50;99.90
11983;DHT22;72623;51.184;7.176;2024-02-23T05:51:32;6.50;99.90
11983;DHT22;72623;51.184;7.176;2024-02-23T05:53:59;6.50;99.90
11983;DHT22;72623;51.184;7.176;2024-02-23T05:56:25;6.50;99.90
11983;DHT22;72623;51.184;7.176;2024-02-23T05:58:52;6.50;99.90
11983;DHT22;72623;51.184;7.176;2024-02-23T06:01:19;6.40;99.90
11983;DHT22;72623;51.184;7.176;2024-02-23T06:03:46;6.40;99.90
11983;DHT22;72623;51.184;7.176;2024-02-23T06:06:13;6.40;99.90
11983;DHT22;72623;51.184;7.176;2024-02-23T06:08:40;6.40;99.90
11983;DHT22;72623;51.184;7.176;2024-02-23T06:11:09;6.40;99.90
11983;DHT22;72623;51.184;7.176;2024-02-23T06:13:36;6.30;99.90
11983;DHT22;72623;51.184;7.176;2024-02-23T06:16:04;6.40;99.90
11983;DHT22;72623;51.184;7.176;2024-02-23T06:18:30;6.40;99.90
11983;DHT22;72623;51.184;7.176;2024-02-23T06:20:57;6.30;99.90
11983;DHT22;72623;51.184;7.176;2024-02-23T06:23:24;6.40;99.90
11983;DHT22;72623;51.184;7.176;2024-02-23T06:25:51;6.30;99.90
11983;DHT22;72623;51.184;7.176;2024-02-23T06:28:17;6.30;99.90
11983;DHT22;72623;51.184;7.176;2024-02-23T06:30:44;6.30;99.90
11983;DHT22;72623;51.184;7.176;2024-02-23T06:33:11;6.40;99.90
11983;DHT22;72623;51.184;7.176;2024-02-23T06:35:37;6.30;99.90
11983;DHT22;72623;51.184;7.176;2024-02-23T06:38:04;6.30;99.90
11983;DHT22;72623;51.184;7.176;2024-02-23T06:40:32;6.30;99.90
11983;DHT22;72623;51.184;7.176;2024-02-23T06:42:58;6.30;99.90
11983;DHT22;72623;51.184;7.176;2024-02-23T06:45:25;6.30;99.90
11983;DHT22;72623;51.184;7.176;2024-02-23T06:47:52;6.40;99.90
11983;DHT22;72623;51.184;7.176;2024-02-23T06:50:19;6.40;99.90
11983;DHT22;72623;51.184;7.176;2024-02-23T06:52:45;6.40;99.90
11983;DHT22;72623;51.184;7.176;2024-02-23T06:55:13;6.30;99.90
11983;DHT22;72623;51.184;7.176;2024-02-23T06:57:41;6.30;99.90
11983;DHT22;72623;51.184;7.176;2024-02-23T07:00:08;6.30;99.90
11983;DHT22;72623;51.184;7.176;2024-02-23T07:02:35;6.40;99.90
11983;DHT22;72623;51.184;7.176;2024-02-23T07:05:03;6.50;99.90
11983;DHT22;72623;51.184;7.176;2024-02-23T07:07:31;6.50;99.90
11983;DHT22;72623;51.184;7.176;2024-02-23T07:09:59;6.50;99.90
11983;DHT22;72623;51.184;7.176;2024-02-23T07:12:26;6.50;99.90
11983;DHT22;72623;51.184;7.176;2024-02-23T07:14:55;6.40;99.90
11983;DHT22;72623;51.184;7.176;2024-02-23T07:17:22;6.50;99.90
11983;DHT22;72623;51.184;7.176;2024-02-23T07:19:49;6.40;99.90
11983;DHT22;72623;51.184;7.176;2024-02-23T07:22:16;6.40;99.90
11983;DHT22;72623;51.184;7.176;2024-02-23T07:24:44;6.50;99.90
11983;DHT22;72623;51.184;7.176;2024-02-23T07:27:10;6.50;99.90
11983;DHT22;72623;51.184;7.176;2024-02-23T07:29:36;6.50;99.90
11983;DHT22;72623;51.184;7.176;2024-02-23T07:32:03;6.60;99.90
11983;DHT22;72623;51.184;7.176;2024-02-23T07:34:31;6.60;99.90
11983;DHT22;72623;51.184;7.176;2024-02-23T07:36:57;6.60;99.90
11983;DHT22;72623;51.184;7.176;2024-02-23T07:39:24;6.50;99.90
11983;DHT22;72623;51.184;7.176;2024-02-23T07:41:51;6.50;99.90
11983;DHT22;72623;51.184;7.176;2024-02-23T07:44:17;6.50;99.90
11983;DHT22;72623;51.184;7.176;2024-02-23T07:46:44;6.50;99.90
11983;DHT22;72623;51.184;7.176;2024-02-23T07:49:11;6.60;99.90
11983;DHT22;72623;51.184;7.176;2024-02-23T07:51:37;6.60;99.90
11983;DHT22;72623;51.184;7.176;2024-02-23T07:54:04;6.70;99.90
11983;DHT22;72623;51.184;7.176;2024-02-23T07:56:31;6.60;99.90
11983;DHT22;72623;51.184;7.176;2024-02-23T07:58:58;6.70;99.90
11983;DHT22;72623;51.184;7.176;2024-02-23T08:01:24;6.70;99.90
11983;DHT22;72623;51.184;7.176;2024-02-23T08:03:51;6.70;99.90
11983;DHT22;72623;51.184;7.176;2024-02-23T08:06:18;6.80;99.90
11983;DHT22;72623;51.184;7.176;2024-02-23T08:08:44;6.80;99.90
11983;DHT22;72623;51.184;7.176;2024-02-23T08:11:12;6.90;99.90
11983;DHT22;72623;51.184;7.176;2024-02-23T08:13:39;6.90;99.90
11983;DHT22;72623;51.184;7.176;2024-02-23T08:16:06;6.90;99.90
11983;DHT22;72623;51.184;7.176;2024-02-23T08:18:33;6.90;99.90
11983;DHT22;72623;51.184;7.176;2024-02-23T08:20:59;7.00;99.90
11983;DHT22;72623;51.184;7.176;2024-02-23T08:23:28;7.00;99.90
11983;DHT22;72623;51.184;7.176;2024-02-23T08:25:55;7.00;99.90
11983;DHT22;72623;51.184;7.176;2024-02-23T08:28:24;7.10;99.90
11983;DHT22;72623;51.184;7.176;2024-02-23T08:30:50;7.10;99.90
11983;DHT22;72623;51.184;7.176;2024-02-23T08:33:18;7.10;99.90
11983;DHT22;72623;51.184;7.176;2024-02-23T08:35:45;7.10;99.90
11983;DHT22;72623;51.184;7.176;2024-02-23T08:38:14;7.10;99.90
11983;DHT22;72623;51.184;7.176;2024-02-23T08:40:40;7.20;99.90
11983;DHT22;72623;51.184;7.176;2024-02-23T08:43:07;7.30;99.90
11983;DHT22;72623;51.184;7.176;2024-02-23T08:45:34;7.20;99.90
11983;DHT22;72623;51.184;7.176;2024-02-23T08:48:00;7.30;99.90
11983;DHT22;72623;51.184;7.176;2024-02-23T08:50:28;7.20;99.90
11983;DHT22;72623;51.184;7.176;2024-02-23T08:52:55;7.30;99.90
11983;DHT22;72623;51.184;7.176;2024-02-23T08:55:24;7.30;99.90
11983;DHT22;72623;51.184;7.176;2024-02-23T08:57:50;7.30;99.90
11983;DHT22;72623;51.184;7.176;2024-02-23T09:00:17;7.30;99.90
11983;DHT22;72623;51.184;7.176;2024-02-23T09:02:44;7.30;99.90
11983;DHT22;72623;51.184;7.176;2024-02-23T09:05:11;7.30;99.90
11983;DHT22;72623;51.184;7.176;2024-02-23T09:07:38;7.40;99.90
11983;DHT22;72623;51.184;7.176;2024-02-23T09:10:05;7.50;99.90
11983;DHT22;72623;51.184;7.176;2024-02-23T09:12:30;7.50;99.90
11983;DHT22;72623;51.184;7.176;2024-02-23T09:14:57;7.50;99.90
11983;DHT22;72623;51.184;7.176;2024-02-23T09:17:24;7.60;99.90
11983;DHT22;72623;51.184;7.176;2024-02-23T09:19:52;7.60;99.90
11983;DHT22;72623;51.184;7.176;2024-02-23T09:22:18;7.70;99.90
11983;DHT22;72623;51.184;7.176;2024-02-23T09:24:45;7.60;99.90
11983;DHT22;72623;51.184;7.176;2024-02-23T09:27:12;7.60;99.60
11983;DHT22;72623;51.184;7.176;2024-02-23T09:29:40;7.60;99.90
11983;DHT22;72623;51.184;7.176;2024-02-23T09:32:07;7.60;99.90
11983;DHT22;72623;51.184;7.176;2024-02-23T09:34:34;7.60;99.90
11983;DHT22;72623;51.184;7.176;2024-02-23T09:37:01;7.60;99.90
11983;DHT22;72623;51.184;7.176;2024-02-23T09:39:27;7.60;99.60
11983;DHT22;72623;51.184;7.176;2024-02-23T09:41:56;7.60;99.90
11983;DHT22;72623;51.184;7.176;2024-02-23T09:44:23;7.60;99.90
11983;DHT22;72623;51.184;7.176;2024-02-23T09:46:50;7.60;99.90
11983;DHT22;72623;51.184;7.176;2024-02-23T09:49:17;7.70;99.90
11983;DHT22;72623;51.184;7.176;2024-02-23T09:51:43;7.80;99.90
11983;DHT22;72623;51.184;7.176;2024-02-23T09:54:10;7.80;99.90
11983;DHT22;72623;51.184;7.176;2024-02-23T09:56:38;7.80;99.90
11983;DHT22;72623;51.184;7.176;2024-02-23T09:59:05;7.80;99.90
11983;DHT22;72623;51.184;7.176;2024-02-23T10:01:32;7.90;99.90
11983;DHT22;72623;51.184;7.176;2024-02-23T10:04:01;7.90;99.90
11983;DHT22;72623;51.184;7.176;2024-02-23T10:06:30;8.00;99.90
11983;DHT22;72623;51.184;7.176;2024-02-23T10:08:56;8.00;99.30
11983;DHT22;72623;51.184;7.176;2024-02-23T10:11:24;8.00;98.40
11983;DHT22;72623;51.184;7.176;2024-02-23T10:13:51;8.00;99.30
11983;DHT22;72623;51.184;7.176;2024-02-23T10:16:19;8.00;98.80
11983;DHT22;72623;51.184;7.176;2024-02-23T10:18:47;8.00;98.40
11983;DHT22;72623;51.184;7.176;2024-02-23T10:21:17;8.00;98.10
11983;DHT22;72623;51.184;7.176;2024-02-23T10:23:44;8.00;99.90
11983;DHT22;72623;51.184;7.176;2024-02-23T10:26:11;8.00;98.60
11983;DHT22;72623;51.184;7.176;2024-02-23T10:28:38;8.00;99.50
11983;DHT22;72623;51.184;7.176;2024-02-23T10:31:08;8.00;93.40
11983;DHT22;72623;51.184;7.176;2024-02-23T10:33:35;8.10;93.80
11983;DHT22;72623;51.184;7.176;2024-02-23T10:36:05;8.10;95.50
11983;DHT22;72623;51.184;7.176;2024-02-23T10:38:35;8.10;92.90
11983;DHT22;72623;51.184;7.176;2024-02-23T10:41:05;8.10;93.60
11983;DHT22;72623;51.184;7.176;2024-02-23T10:43:43;8.20;93.60
11983;DHT22;72623;51.184;7.176;2024-02-23T10:46:11;8.20;91.90
11983;DHT22;72623;51.184;7.176;2024-02-23T10:48:43;8.10;87.00
11983;DHT22;72623;51.184;7.176;2024-02-23T10:51:13;8.10;93.30
11983;DHT22;72623;51.184;7.176;2024-02-23T10:53:40;8.10;94.50
11983;DHT22;72623;51.184;7.176;2024-02-23T10:56:07;8.10;94.30
11983;DHT22;72623;51.184;7.176;2024-02-23T10:58:34;8.10;91.80
11983;DHT22;72623;51.184;7.176;2024-02-23T11:01:07;8.10;90.30
11983;DHT22;72623;51.184;7.176;2024-02-23T11:03:37;8.20;92.90
11983;DHT22;72623;51.184;7.176;2024-02-23T11:06:07;8.10;90.00
11983;DHT22;72623;51.184;7.176;2024-02-23T11:08:34;8.20;91.70
11983;DHT22;72623;51.184;7.176;2024-02-23T11:11:08;8.20;89.00
11983;DHT22;72623;51.184;7.176;2024-02-23T11:13:38;8.30;92.50
11983;DHT22;72623;51.184;7.176;2024-02-23T11:16:06;8.30;94.20
11983;DHT22;72623;51.184;7.176;2024-02-23T11:18:38;8.40;91.60
11983;DHT22;72623;51.184;7.176;2024-02-23T11:21:08;8.30;87.80
11983;DHT22;72623;51.184;7.176;2024-02-23T11:23:53;8.30;92.70
11983;DHT22;72623;51.184;7.176;2024-02-23T11:26:23;8.30;91.90
11983;DHT22;72623;51.184;7.176;2024-02-23T11:28:52;8.40;88.50
11983;DHT22;72623;51.184;7.176;2024-02-23T11:31:20;8.40;92.20
11983;DHT22;72623;51.184;7.176;2024-02-23T11:33:55;8.40;93.00
11983;DHT22;72623;51.184;7.176;2024-02-23T11:36:32;8.40;83.40
11983;DHT22;72623;51.184;7.176;2024-02-23T11:39:00;8.40;91.00
11983;DHT22;72623;51.184;7.176;2024-02-23T11:41:28;8.40;89.60
11983;DHT22;72623;51.184;7.176;2024-02-23T11:43:56;8.50;90.90
11983;DHT22;72623;51.184;7.176;2024-02-23T11:46:23;8.50;90.10
11983;DHT22;72623;51.184;7.176;2024-02-23T11:48:50;8.40;90.20
11983;DHT22;72623;51.184;7.176;2024-02-23T11:51:23;8.40;86.30
11983;DHT22;72623;51.184;7.176;2024-02-23T11:53:52;8.30;90.30
11983;DHT22;72623;51.184;7.176;2024-02-23T11:56:22;8.40;93.10
11983;DHT22;72623;51.184;7.176;2024-02-23T11:58:49;8.40;91.50
11983;DHT22;72623;51.184;7.176;2024-02-23T12:01:16;8.40;94.10
11983;DHT22;72623;51.184;7.176;2024-02-23T12:03:42;8.40;95.30
11983;DHT22;72623;51.184;7.176;2024-02-23T12:06:10;8.50;92.90
11983;DHT22;72623;51.184;7.176;2024-02-23T12:08:37;8.50;91.00
11983;DHT22;72623;51.184;7.176;2024-02-23T12:11:05;8.50;92.00
11983;DHT22;72623;51.184;7.176;2024-02-23T12:13:36;8.50;94.50
11983;DHT22;72623;51.184;7.176;2024-02-23T12:16:04;8.50;93.40
11983;DHT22;72623;51.184;7.176;2024-02-23T12:18:35;8.60;90.20
11983;DHT22;72623;51.184;7.176;2024-02-23T12:21:05;8.50;90.20
11983;DHT22;72623;51.184;7.176;2024-02-23T12:23:42;8.50;91.90
11983;DHT22;72623;51.184;7.176;2024-02-23T12:26:10;8.60;88.80
11983;DHT22;72623;51.184;7.176;2024-02-23T12:28:38;8.60;85.30
11983;DHT22;72623;51.184;7.176;2024-02-23T12:31:06;8.60;90.70
11983;DHT22;72623;51.184;7.176;2024-02-23T12:33:34;8.60;91.70
11983;DHT22;72623;51.184;7.176;2024-02-23T12:36:02;8.70;90.60
11983;DHT22;72623;51.184;7.176;2024-02-23T12:38:30;8.60;90.00
11983;DHT22;72623;51.184;7.176;2024-02-23T12:40:57;8.60;88.90
11983;DHT22;72623;51.184;7.176;2024-02-23T12:43:23;8.60;89.20
11983;DHT22;72623;51.184;7.176;2024-02-23T12:45:52;8.60;90.90
11983;DHT22;72623;51.184;7.176;2024-02-23T12:48:19;8.70;92.60
11983;DHT22;72623;51.184;7.176;2024-02-23T12:50:47;8.70;91.60
11983;DHT22;72623;51.184;7.176;2024-02-23T12:53:39;8.70;91.20
11983;DHT22;72623;51.184;7.176;2024-02-23T12:56:10;8.70;94.10
11983;DHT22;72623;51.184;7.176;2024-02-23T12:58:43;8.60;93.10
11983;DHT22;72623;51.184;7.176;2024-02-23T13:01:10;8.60;93.50
11983;DHT22;72623;51.184;7.176;2024-02-23T13:03:38;8.60;91.90
11983;DHT22;72623;51.184;7.176;2024-02-23T13:06:06;8.60;93.90
11983;DHT22;72623;51.184;7.176;2024-02-23T13:08:33;8.60;94.40
11983;DHT22;72623;51.184;7.176;2024-02-23T13:11:00;8.60;98.80
11983;DHT22;72623;51.184;7.176;2024-02-23T13:13:28;8.60;99.90
11983;DHT22;72623;51.184;7.176;2024-02-23T13:15:55;8.60;99.90
11983;DHT22;72623;51.184;7.176;2024-02-23T13:18:22;8.60;99.90
11983;DHT22;72623;51.184;7.176;2024-02-23T13:20:49;8.60;99.90
11983;DHT22;72623;51.184;7.176;2024-02-23T13:23:16;8.60;99.90
11983;DHT22;72623;51.184;7.176;2024-02-23T13:25:43;8.70;99.90
11983;DHT22;72623;51.184;7.176;2024-02-23T13:28:10;8.70;99.90
11983;DHT22;72623;51.184;7.176;2024-02-23T13:30:37;8.70;99.90
11983;DHT22;72623;51.184;7.176;2024-02-23T13:33:05;8.70;99.90
11983;DHT22;72623;51.184;7.176;2024-02-23T13:35:34;8.80;99.90
11983;DHT22;72623;51.184;7.176;2024-02-23T13:38:00;8.80;97.60
11983;DHT22;72623;51.184;7.176;2024-02-23T13:40:29;8.90;99.90
11983;DHT22;72623;51.184;7.176;2024-02-23T13:42:57;8.90;99.90
11983;DHT22;72623;51.184;7.176;2024-02-23T13:45:23;8.90;99.20
11983;DHT22;72623;51.184;7.176;2024-02-23T13:48:01;8.90;99.60
11983;DHT22;72623;51.184;7.176;2024-02-23T13:50:29;8.90;98.20
11983;DHT22;72623;51.184;7.176;2024-02-23T13:52:55;9.00;95.60
11983;DHT22;72623;51.184;7.176;2024-02-23T13:55:22;8.90;95.80
11983;DHT22;72623;51.184;7.176;2024-02-23T13:57:49;9.00;94.10
11983;DHT22;72623;51.184;7.176;2024-02-23T14:00:17;9.00;92.20
11983;DHT22;72623;51.184;7.176;2024-02-23T14:02:45;9.00;94.20
11983;DHT22;72623;51.184;7.176;2024-02-23T14:05:12;8.90;93.30
11983;DHT22;72623;51.184;7.176;2024-02-23T14:07:40;8.90;93.20
11983;DHT22;72623;51.184;7.176;2024-02-23T14:10:07;8.90;96.50
11983;DHT22;72623;51.184;7.176;2024-02-23T14:12:34;9.00;97.60
11983;DHT22;72623;51.184;7.176;2024-02-23T14:15:01;9.00;95.90
11983;DHT22;72623;51.184;7.176;2024-02-23T14:17:28;8.90;96.90
11983;DHT22;72623;51.184;7.176;2024-02-23T14:19:55;9.00;98.40
11983;DHT22;72623;51.184;7.176;2024-02-23T14:22:22;9.00;93.60
11983;DHT22;72623;51.184;7.176;2024-02-23T14:24:49;9.10;93.80
11983;DHT22;72623;51.184;7.176;2024-02-23T14:27:15;9.10;93.70
11983;DHT22;72623;51.184;7.176;2024-02-23T14:29:42;9.20;90.20
11983;DHT22;72623;51.184;7.176;2024-02-23T14:32:10;9.10;86.90
11983;DHT22;72623;51.184;7.176;2024-02-23T14:34:41;9.10;91.20
11983;DHT22;72623;51.184;7.176;2024-02-23T14:37:08;9.20;85.30
11983;DHT22;72623;51.184;7.176;2024-02-23T14:39:35;9.20;88.10
11983;DHT22;72623;51.184;7.176;2024-02-23T14:42:02;9.10;88.50
11983;DHT22;72623;51.184;7.176;2024-02-23T14:44:29;9.20;91.20
11983;DHT22;72623;51.184;7.176;2024-02-23T14:46:56;9.20;91.60
11983;DHT22;72623;51.184;7.176;2024-02-23T14:49:23;9.10;90.70
11983;DHT22;72623;51.184;7.176;2024-02-23T14:51:49;9.10;90.90
11983;DHT22;72623;51.184;7.176;2024-02-23T14:54:16;9.10;92.30
11983;DHT22;72623;51.184;7.176;2024-02-23T14:56:43;9.10;92.10
11983;DHT22;72623;51.184;7.176;2024-02-23T14:59:10;9.00;93.60
11983;DHT22;72623;51.184;7.176;2024-02-23T15:01:37;9.00;93.30
11983;DHT22;72623;51.184;7.176;2024-02-23T15:04:07;8.90;94.00
11983;DHT22;72623;51.184;7.176;2024-02-23T15:06:33;9.00;94.50
11983;DHT22;72623;51.184;7.176;2024-02-23T15:09:01;9.00;93.50
11983;DHT22;72623;51.184;7.176;2024-02-23T15:11:28;8.90;93.10
11983;DHT22;72623;51.184;7.176;2024-02-23T15:13:55;8.90;92.50
11983;DHT22;72623;51.184;7.176;2024-02-23T15:16:27;8.80;94.70
11983;DHT22;72623;51.184;7.176;2024-02-23T15:18:56;8.80;94.30
11983;DHT22;72623;51.184;7.176;2024-02-23T15:21:24;8.90;90.70
11983;DHT22;72623;51.184;7.176;2024-02-23T15:23:51;8.80;91.90
11983;DHT22;72623;51.184;7.176;2024-02-23T15:26:18;8.90;90.90
11983;DHT22;72623;51.184;7.176;2024-02-23T15:28:45;8.80;90.00
11983;DHT22;72623;51.184;7.176;2024-02-23T15:31:12;8.80;90.40
11983;DHT22;72623;51.184;7.176;2024-02-23T15:33:39;8.80;92.10
11983;DHT22;72623;51.184;7.176;2024-02-23T15:36:06;8.90;92.70
11983;DHT22;72623;51.184;7.176;2024-02-23T15:38:34;8.90;85.70
11983;DHT22;72623;51.184;7.176;2024-02-23T15:41:02;8.90;80.30
11983;DHT22;72623;51.184;7.176;2024-02-23T15:43:29;8.90;74.30
11983;DHT22;72623;51.184;7.176;2024-02-23T15:45:55;8.90;70.60